createdAt,value
2022-12-19T00:00:14.722Z,15.43
2022-12-19T00:02:42.741Z,15.90
2022-12-19T00:05:11.155Z,15.25
2022-12-19T00:07:38.276Z,15.50
2022-12-19T00:10:06.666Z,16.42
2022-12-19T00:12:33.787Z,14.63
2022-12-19T00:15:01.865Z,16.48
2022-12-19T00:17:29.517Z,14.35
2022-12-19T00:19:56.636Z,14.88
2022-12-19T00:22:23.791Z,15.40
2022-12-19T00:24:50.967Z,15.40
2022-12-19T00:27:18.099Z,15.70
2022-12-19T00:29:45.361Z,15.57
2022-12-19T00:32:13.337Z,15.13
2022-12-19T00:34:42.563Z,15.95
2022-12-19T00:37:09.637Z,16.48
2022-12-19T00:39:36.819Z,16.58
2022-12-19T00:42:04.042Z,17.30
2022-12-19T00:44:31.271Z,15.60
2022-12-19T00:46:58.423Z,16.08
2022-12-19T00:49:26.043Z,15.02
2022-12-19T00:51:53.305Z,16.08
2022-12-19T00:54:20.548Z,15.20
2022-12-19T00:56:48.166Z,15.88
2022-12-19T00:59:15.322Z,16.02
2022-12-19T01:01:45.580Z,16.20
2022-12-19T01:04:31.821Z,15.85
2022-12-19T01:07:03.133Z,15.50
2022-12-19T01:09:31.126Z,15.35
2022-12-19T01:12:17.207Z,16.90
2022-12-19T01:14:44.490Z,17.17
2022-12-19T01:17:11.806Z,16.85
2022-12-19T01:19:43.570Z,15.02
2022-12-19T01:22:13.390Z,16.73
2022-12-19T01:24:41.084Z,15.05
2022-12-19T01:27:08.530Z,15.93
2022-12-19T01:29:37.716Z,15.10
2022-12-19T01:32:16.437Z,15.82
2022-12-19T01:34:43.532Z,14.65
2022-12-19T01:37:10.674Z,15.63
2022-12-19T01:39:37.883Z,14.15
2022-12-19T01:42:23.232Z,13.63
2022-12-19T01:45:39.466Z,15.50
2022-12-19T01:48:32.950Z,13.98
2022-12-19T01:51:06.269Z,13.63
2022-12-19T01:53:50.588Z,14.60
2022-12-19T01:56:26.296Z,14.93
2022-12-19T01:59:05.055Z,14.35
2022-12-19T02:01:34.396Z,14.25
2022-12-19T02:04:03.657Z,15.02
2022-12-19T02:06:35.149Z,14.38
2022-12-19T02:09:02.755Z,14.73
2022-12-19T02:11:29.940Z,13.07
2022-12-19T02:13:57.144Z,13.63
2022-12-19T02:16:33.438Z,14.07
2022-12-19T02:19:24.764Z,14.65
2022-12-19T02:22:08.648Z,13.40
2022-12-19T02:25:00.441Z,14.82
2022-12-19T02:27:42.745Z,13.55
2022-12-19T02:30:18.696Z,13.98
2022-12-19T02:33:09.189Z,14.20
2022-12-19T02:36:01.488Z,12.65
2022-12-19T02:38:40.231Z,14.25
2022-12-19T02:41:10.561Z,13.60
2022-12-19T02:43:42.663Z,14.70
2022-12-19T02:46:11.585Z,12.57
2022-12-19T02:48:39.833Z,16.45
2022-12-19T02:51:07.699Z,17.27
2022-12-19T02:53:37.792Z,15.57
2022-12-19T02:56:14.638Z,14.25
2022-12-19T02:59:07.983Z,16.60
2022-12-19T03:01:46.017Z,13.27
2022-12-19T03:04:37.240Z,13.60
2022-12-19T03:07:11.175Z,14.73
2022-12-19T03:09:59.155Z,14.95
2022-12-19T03:12:39.558Z,13.77
2022-12-19T03:15:08.188Z,15.88
2022-12-19T03:17:37.403Z,15.57
2022-12-19T03:20:33.713Z,14.95
2022-12-19T03:23:00.935Z,14.80
2022-12-19T03:25:31.180Z,15.27
2022-12-19T03:28:03.360Z,14.95
2022-12-19T03:30:32.515Z,14.93
2022-12-19T03:33:00.728Z,16.23
2022-12-19T03:35:30.173Z,14.18
2022-12-19T03:38:02.086Z,14.38
2022-12-19T03:40:30.906Z,14.45
2022-12-19T03:43:12.668Z,14.18
2022-12-19T03:45:46.213Z,12.98
2022-12-19T03:48:39.475Z,13.10
2022-12-19T03:51:25.436Z,11.65
2022-12-19T03:54:14.284Z,13.68
2022-12-19T03:56:57.411Z,12.65
2022-12-19T03:59:49.261Z,13.50
2022-12-19T04:02:18.619Z,11.90
2022-12-19T04:04:52.251Z,11.82
2022-12-19T04:07:22.112Z,9.95
2022-12-19T04:09:51.647Z,12.95
2022-12-19T04:12:27.277Z,13.40
2022-12-19T04:14:54.559Z,12.75
2022-12-19T04:17:30.768Z,12.75
2022-12-19T04:20:05.869Z,12.57
2022-12-19T04:22:43.617Z,14.02
2022-12-19T04:25:15.314Z,11.77
2022-12-19T04:27:47.375Z,11.70
2022-12-19T04:30:18.081Z,11.98
2022-12-19T04:32:46.198Z,13.02
2022-12-19T04:35:14.074Z,12.30
2022-12-19T04:37:41.599Z,12.50
2022-12-19T04:40:10.387Z,13.75
2022-12-19T04:42:37.519Z,13.88
2022-12-19T04:45:06.363Z,13.35
2022-12-19T04:47:34.461Z,13.95
2022-12-19T04:50:01.655Z,14.30
2022-12-19T04:52:28.827Z,14.55
2022-12-19T04:54:56.001Z,14.75
2022-12-19T04:57:23.226Z,13.23
2022-12-19T04:59:51.801Z,13.60
2022-12-19T05:02:20.098Z,12.00
2022-12-19T05:04:47.557Z,12.68
2022-12-19T05:07:14.995Z,12.55
2022-12-19T05:09:42.173Z,12.30
2022-12-19T05:12:10.415Z,13.52
2022-12-19T05:14:37.764Z,12.68
2022-12-19T05:17:05.015Z,12.25
2022-12-19T05:19:32.215Z,12.48
2022-12-19T05:21:59.891Z,12.20
2022-12-19T05:24:27.175Z,12.85
2022-12-19T05:26:54.388Z,12.75
2022-12-19T05:29:21.592Z,11.68
2022-12-19T05:31:48.755Z,13.93
2022-12-19T05:34:16.032Z,15.38
2022-12-19T05:36:43.254Z,15.40
2022-12-19T05:39:10.359Z,15.32
2022-12-19T05:41:37.602Z,15.20
2022-12-19T05:44:04.946Z,14.90
2022-12-19T05:46:32.155Z,13.30
2022-12-19T05:48:59.580Z,14.05
2022-12-19T05:51:27.451Z,14.07
2022-12-19T05:53:54.589Z,14.35
2022-12-19T05:56:23.197Z,14.70
2022-12-19T05:58:51.035Z,15.85
2022-12-19T06:01:26.651Z,15.15
2022-12-19T06:03:55.426Z,14.40
2022-12-19T06:06:25.472Z,15.23
2022-12-19T06:08:58.050Z,13.05
2022-12-19T06:11:26.507Z,12.77
2022-12-19T06:13:54.461Z,11.88
2022-12-19T06:16:23.961Z,11.80
2022-12-19T06:18:51.268Z,11.68
2022-12-19T06:21:20.971Z,11.90
2022-12-19T06:23:48.946Z,12.27
2022-12-19T06:26:19.931Z,14.65
2022-12-19T06:28:49.438Z,15.95
2022-12-19T06:31:17.884Z,16.15
2022-12-19T06:33:45.319Z,15.52
2022-12-19T06:36:17.419Z,14.57
2022-12-19T06:38:44.762Z,14.55
2022-12-19T06:41:30.380Z,14.95
2022-12-19T06:44:01.791Z,14.88
2022-12-19T06:46:29.735Z,15.82
2022-12-19T06:48:56.952Z,15.82
2022-12-19T06:51:24.206Z,17.75
2022-12-19T06:53:52.023Z,17.25
2022-12-19T06:56:19.360Z,16.70
2022-12-19T06:58:47.139Z,16.13
2022-12-19T07:01:18.511Z,16.92
2022-12-19T07:03:47.328Z,17.10
2022-12-19T07:06:14.557Z,16.88
2022-12-19T07:08:42.685Z,16.40
2022-12-19T07:11:09.979Z,15.65
2022-12-19T07:13:37.160Z,14.98
2022-12-19T07:16:05.953Z,14.90
2022-12-19T07:18:37.689Z,17.45
2022-12-19T07:21:07.026Z,16.90
2022-12-19T07:23:35.567Z,15.80
2022-12-19T07:26:03.089Z,18.45
2022-12-19T07:28:30.519Z,17.13
2022-12-19T07:30:57.688Z,16.92
2022-12-19T07:33:24.780Z,18.70
2022-12-19T07:35:52.611Z,17.60
2022-12-19T07:38:19.802Z,19.13
2022-12-19T07:40:46.940Z,19.90
2022-12-19T07:43:14.153Z,17.85
2022-12-19T07:45:41.480Z,18.55
2022-12-19T07:48:08.847Z,18.17
2022-12-19T07:50:36.093Z,19.27
2022-12-19T07:53:03.513Z,18.42
2022-12-19T07:55:30.742Z,17.83
2022-12-19T07:57:57.923Z,16.73
2022-12-19T08:00:25.136Z,15.88
2022-12-19T08:02:52.386Z,17.60
2022-12-19T08:05:20.408Z,16.85
2022-12-19T08:07:47.629Z,17.10
2022-12-19T08:10:15.270Z,17.08
2022-12-19T08:12:42.840Z,15.82
2022-12-19T08:15:11.322Z,16.55
2022-12-19T08:17:41.746Z,18.10
2022-12-19T08:20:11.876Z,16.55
2022-12-19T08:22:39.025Z,17.38
2022-12-19T08:25:07.777Z,15.85
2022-12-19T08:27:35.417Z,16.65
2022-12-19T08:30:03.290Z,17.20
2022-12-19T08:32:30.515Z,18.33
2022-12-19T08:34:57.668Z,16.70
2022-12-19T08:37:24.953Z,16.70
2022-12-19T08:39:52.186Z,32.33
2022-12-19T08:42:19.535Z,16.92
2022-12-19T08:44:47.388Z,16.85
2022-12-19T08:47:15.270Z,16.92
2022-12-19T08:49:42.582Z,15.82
2022-12-19T08:52:10.021Z,16.30
2022-12-19T08:54:37.663Z,15.48
2022-12-19T08:57:05.005Z,14.60
2022-12-19T08:59:32.476Z,16.55
2022-12-19T09:02:01.589Z,15.75
2022-12-19T09:05:58.290Z,16.40
2022-12-19T09:07:17.354Z,17.40
2022-12-19T09:09:45.743Z,15.82
2022-12-19T09:12:15.196Z,15.60
2022-12-19T09:14:44.527Z,16.45
2022-12-19T09:17:11.842Z,16.40
2022-12-19T09:19:39.179Z,11.80
2022-12-19T09:22:08.913Z,15.20
2022-12-19T09:24:36.309Z,15.23
2022-12-19T09:27:03.605Z,16.00
2022-12-19T09:29:35.339Z,16.75
2022-12-19T09:32:03.292Z,15.57
2022-12-19T09:34:37.908Z,17.92
2022-12-19T09:37:16.238Z,18.50
2022-12-19T09:39:46.929Z,17.48
2022-12-19T09:42:26.665Z,15.88
2022-12-19T09:45:15.473Z,16.38
2022-12-19T09:47:58.405Z,16.67
2022-12-19T09:50:48.384Z,16.70
2022-12-19T09:53:54.275Z,16.88
2022-12-19T09:56:24.194Z,16.30
2022-12-19T09:58:57.183Z,16.67
2022-12-19T10:01:33.019Z,16.40
2022-12-19T10:04:10.963Z,16.73
2022-12-19T10:07:20.438Z,16.10
2022-12-19T10:12:24.886Z,16.75
2022-12-19T10:12:50.984Z,17.88
2022-12-19T10:15:42.681Z,17.70
2022-12-19T10:18:51.131Z,16.58
2022-12-19T10:24:50.480Z,18.35
2022-12-19T10:27:59.775Z,18.98
2022-12-19T10:30:31.689Z,17.17
2022-12-19T10:33:28.898Z,18.50
2022-12-19T10:36:02.016Z,17.55
2022-12-19T10:38:41.531Z,17.42
2022-12-19T10:41:21.865Z,17.48
2022-12-19T10:44:16.320Z,17.40
2022-12-19T10:46:50.918Z,15.70
2022-12-19T10:49:22.282Z,16.58
2022-12-19T10:52:08.211Z,16.27
2022-12-19T10:54:38.168Z,17.05
2022-12-19T10:57:26.338Z,16.83
2022-12-19T11:00:02.187Z,16.50
2022-12-19T11:02:48.663Z,14.52
2022-12-19T11:05:24.866Z,15.75
2022-12-19T11:08:07.387Z,16.58
2022-12-19T11:12:10.988Z,15.93
2022-12-19T11:19:29.316Z,15.60
2022-12-19T11:21:40.177Z,17.23
2022-12-19T11:29:18.089Z,22.33
2022-12-19T11:29:36.670Z,19.05
2022-12-19T11:29:37.050Z,17.98
2022-12-19T11:30:39.550Z,18.85
2022-12-19T11:34:21.550Z,16.38
2022-12-19T11:37:00.824Z,16.77
2022-12-19T11:39:30.805Z,15.32
2022-12-19T11:42:12.610Z,14.40
2022-12-19T11:44:46.447Z,13.43
2022-12-19T11:47:44.490Z,15.18
2022-12-19T11:50:22.993Z,15.73
2022-12-19T11:53:16.643Z,8.07
2022-12-19T11:56:01.394Z,14.93
2022-12-19T11:58:31.227Z,13.68
2022-12-19T12:01:15.850Z,14.20
2022-12-19T12:04:02.528Z,10.00
2022-12-19T12:06:46.544Z,14.20
2022-12-19T12:11:21.533Z,14.27
2022-12-19T12:19:26.342Z,15.75
2022-12-19T12:26:34.826Z,14.35
2022-12-19T12:31:04.353Z,15.60
2022-12-19T12:31:05.781Z,14.57
2022-12-19T12:31:53.908Z,13.27
2022-12-19T12:32:06.510Z,12.32
2022-12-19T12:35:32.682Z,14.40
2022-12-19T12:40:23.940Z,15.68
2022-12-19T12:43:12.582Z,16.50
2022-12-19T12:45:43.052Z,17.10
2022-12-19T12:48:16.379Z,15.02
2022-12-19T12:50:49.855Z,14.95
2022-12-19T12:53:24.693Z,16.75
2022-12-19T12:55:54.984Z,15.30
2022-12-19T12:58:54.093Z,17.88
2022-12-19T13:01:30.936Z,6.20
2022-12-19T13:04:13.420Z,16.00
2022-12-19T13:07:00.648Z,14.88
2022-12-19T13:09:30.608Z,18.33
2022-12-19T13:12:21.064Z,15.95
2022-12-19T13:14:51.055Z,17.15
2022-12-19T13:17:26.112Z,15.00
2022-12-19T13:19:56.663Z,15.65
2022-12-19T13:22:29.526Z,16.40
2022-12-19T13:24:58.866Z,11.30
2022-12-19T13:27:33.357Z,17.80
2022-12-19T13:32:32.600Z,14.00
2022-12-19T13:35:30.060Z,17.42
2022-12-19T13:39:48.862Z,18.08
2022-12-19T13:41:22.535Z,14.48
2022-12-19T13:43:50.023Z,17.88
2022-12-19T13:46:44.713Z,8.13
2022-12-19T13:49:14.926Z,17.58
2022-12-19T13:51:43.610Z,18.25
2022-12-19T13:54:21.348Z,18.05
2022-12-19T13:56:49.294Z,10.13
2022-12-19T13:59:16.926Z,19.55
2022-12-19T14:01:44.214Z,16.88
2022-12-19T14:04:24.657Z,19.02
2022-12-19T14:06:58.812Z,15.82
2022-12-19T14:11:41.733Z,20.05
2022-12-19T14:13:51.990Z,18.42
2022-12-19T14:15:41.762Z,17.90
2022-12-19T14:18:44.133Z,19.48
2022-12-19T14:22:04.371Z,18.40
2022-12-19T14:24:17.848Z,18.02
2022-12-19T14:28:24.405Z,19.10
2022-12-19T14:30:27.236Z,19.02
2022-12-19T14:33:40.289Z,18.30
2022-12-19T14:36:08.790Z,19.08
2022-12-19T14:39:25.775Z,19.33
2022-12-19T14:41:08.180Z,13.68
2022-12-19T14:44:00.111Z,18.20
2022-12-19T14:54:07.888Z,19.90
2022-12-19T14:54:13.501Z,20.35
2022-12-19T14:54:21.705Z,19.13
2022-12-19T14:56:09.403Z,9.90
2022-12-19T14:58:53.567Z,21.73
2022-12-19T15:01:23.392Z,18.23
2022-12-19T15:04:48.523Z,22.48
2022-12-19T15:07:08.331Z,22.38
2022-12-19T15:11:04.817Z,22.10
2022-12-19T15:14:53.184Z,19.70
2022-12-19T15:16:02.776Z,20.90
2022-12-19T15:18:40.684Z,9.57
2022-12-19T15:21:14.008Z,14.45
2022-12-19T15:23:43.743Z,22.65
2022-12-19T15:26:16.975Z,19.88
2022-12-19T15:28:52.246Z,21.83
2022-12-19T15:31:24.609Z,20.27
2022-12-19T15:34:33.680Z,16.08
2022-12-19T15:36:39.402Z,21.10
2022-12-19T15:39:06.762Z,17.73
2022-12-19T15:41:34.053Z,21.40
2022-12-19T15:44:10.340Z,16.15
2022-12-19T15:46:41.312Z,21.75
2022-12-19T15:49:22.136Z,22.65
2022-12-19T15:51:50.694Z,22.15
2022-12-19T15:57:05.606Z,21.70
2022-12-19T15:59:41.568Z,22.27
2022-12-19T16:02:22.869Z,22.55
2022-12-19T16:04:54.483Z,20.63
2022-12-19T16:07:26.089Z,18.08
2022-12-19T16:09:53.303Z,22.40
2022-12-19T16:12:24.597Z,22.83
2022-12-19T16:14:58.138Z,22.35
2022-12-19T16:17:27.478Z,22.57
2022-12-19T16:19:54.628Z,23.02
2022-12-19T16:22:25.187Z,23.15
2022-12-19T16:24:53.627Z,22.05
2022-12-19T16:27:31.951Z,21.50
2022-12-19T16:30:07.763Z,22.75
2022-12-19T16:32:34.906Z,22.65
2022-12-19T16:35:02.091Z,23.95
2022-12-19T16:37:32.450Z,14.05
2022-12-19T16:39:59.809Z,19.50
2022-12-19T16:42:28.490Z,22.48
2022-12-19T16:44:55.724Z,22.13
2022-12-19T16:47:22.982Z,23.88
2022-12-19T16:49:50.346Z,23.33
2022-12-19T16:52:17.477Z,18.17
2022-12-19T16:54:44.614Z,12.70
2022-12-19T16:57:21.761Z,20.95
2022-12-19T16:59:51.072Z,24.05
2022-12-19T17:02:27.267Z,21.48
2022-12-19T17:04:54.497Z,20.85
2022-12-19T17:07:21.725Z,9.75
2022-12-19T17:09:48.956Z,23.27
2022-12-19T17:12:19.332Z,12.63
2022-12-19T17:14:46.674Z,21.25
2022-12-19T17:17:15.985Z,22.45
2022-12-19T17:19:45.449Z,20.45
2022-12-19T17:22:15.304Z,24.17
2022-12-19T17:24:43.116Z,19.95
2022-12-19T17:27:10.267Z,17.65
2022-12-19T17:29:37.364Z,20.10
2022-12-19T17:32:07.149Z,19.52
2022-12-19T17:34:34.817Z,19.77
2022-12-19T17:37:05.424Z,23.77
2022-12-19T17:39:35.053Z,20.00
2022-12-19T17:42:25.050Z,12.48
2022-12-19T17:44:52.308Z,23.40
2022-12-19T17:47:21.243Z,19.77
2022-12-19T17:49:49.280Z,15.20
2022-12-19T17:52:18.805Z,23.70
2022-12-19T17:54:46.233Z,23.33
2022-12-19T17:57:15.525Z,21.67
2022-12-19T17:59:43.036Z,19.10
2022-12-19T18:02:23.562Z,23.48
2022-12-19T18:04:53.726Z,20.02
2022-12-19T18:07:20.919Z,22.35
2022-12-19T18:09:48.059Z,20.65
2022-12-19T18:12:15.422Z,22.48
2022-12-19T18:14:42.584Z,24.08
2022-12-19T18:17:13.172Z,24.17
2022-12-19T18:19:40.619Z,24.33
2022-12-19T18:22:14.764Z,23.08
2022-12-19T18:24:42.284Z,23.77
2022-12-19T18:27:09.698Z,23.23
2022-12-19T18:29:37.232Z,23.15
2022-12-19T18:32:04.756Z,22.33
2022-12-19T18:34:35.817Z,24.55
2022-12-19T18:37:05.673Z,22.73
2022-12-19T18:39:34.388Z,23.42
2022-12-19T18:42:01.863Z,21.60
2022-12-19T18:44:29.257Z,23.60
2022-12-19T18:46:56.665Z,23.73
2022-12-19T18:49:23.885Z,21.77
2022-12-19T18:51:51.301Z,22.75
2022-12-19T18:54:21.247Z,16.75
2022-12-19T18:56:48.597Z,24.23
2022-12-19T18:59:15.818Z,23.58
2022-12-19T19:01:47.074Z,24.40
2022-12-19T19:04:18.489Z,24.85
2022-12-19T19:06:51.420Z,24.17
2022-12-19T19:09:20.857Z,23.80
2022-12-19T19:11:48.360Z,24.10
2022-12-19T19:14:15.720Z,23.13
2022-12-19T19:16:42.930Z,24.13
2022-12-19T19:19:15.109Z,23.02
2022-12-19T19:21:42.997Z,24.30
2022-12-19T19:24:16.705Z,22.88
2022-12-19T19:26:44.142Z,25.70
2022-12-19T19:29:13.895Z,24.77
2022-12-19T19:31:46.761Z,24.80
2022-12-19T19:34:24.006Z,23.88
2022-12-19T19:36:55.109Z,24.23
2022-12-19T19:39:23.955Z,23.80
2022-12-19T19:41:51.407Z,23.60
2022-12-19T19:44:23.087Z,23.35
2022-12-19T19:46:50.452Z,25.13
2022-12-19T19:49:17.946Z,25.73
2022-12-19T19:51:45.499Z,25.15
2022-12-19T19:54:12.967Z,25.95
2022-12-19T19:56:40.220Z,27.45
2022-12-19T19:59:08.523Z,23.95
2022-12-19T20:01:36.111Z,23.02
2022-12-19T20:04:03.680Z,23.52
2022-12-19T20:06:31.031Z,22.10
2022-12-19T20:08:58.890Z,25.08
2022-12-19T20:11:26.279Z,25.10
2022-12-19T20:13:53.483Z,24.13
2022-12-19T20:16:20.855Z,27.33
2022-12-19T20:18:53.152Z,25.38
2022-12-19T20:21:21.478Z,25.20
2022-12-19T20:23:49.553Z,25.42
2022-12-19T20:26:17.781Z,24.13
2022-12-19T20:28:50.373Z,25.50
2022-12-19T20:31:20.162Z,24.55
2022-12-19T20:33:48.909Z,23.88
2022-12-19T20:36:17.250Z,25.52
2022-12-19T20:38:44.716Z,24.02
2022-12-19T20:41:13.085Z,24.58
2022-12-19T20:43:41.545Z,25.65
2022-12-19T20:46:14.742Z,22.15
2022-12-19T20:48:43.195Z,22.63
2022-12-19T20:51:13.476Z,26.42
2022-12-19T20:53:44.849Z,26.58
2022-12-19T20:56:16.597Z,23.85
2022-12-19T20:58:43.950Z,26.23
2022-12-19T21:01:14.542Z,26.67
2022-12-19T21:03:42.299Z,30.30
2022-12-19T21:06:12.176Z,30.58
2022-12-19T21:08:40.037Z,31.30
2022-12-19T21:11:08.766Z,30.48
2022-12-19T21:13:37.506Z,29.08
2022-12-19T21:16:10.335Z,30.02
2022-12-19T21:18:39.133Z,28.35
2022-12-19T21:21:08.082Z,28.27
2022-12-19T21:23:35.474Z,28.73
2022-12-19T21:26:05.596Z,29.27
2022-12-19T21:28:34.160Z,29.23
2022-12-19T21:31:05.449Z,30.38
2022-12-19T21:33:33.152Z,28.55
2022-12-19T21:36:11.647Z,30.27
2022-12-19T21:38:39.737Z,29.60
2022-12-19T21:41:07.967Z,30.35
2022-12-19T21:43:36.935Z,30.58
2022-12-19T21:46:10.147Z,30.88
2022-12-19T21:48:40.175Z,30.70
2022-12-19T21:51:08.949Z,29.92
2022-12-19T21:53:37.069Z,30.45
2022-12-19T21:56:09.581Z,30.70
2022-12-19T21:58:36.849Z,29.67
2022-12-19T22:01:11.881Z,31.60
2022-12-19T22:03:40.423Z,30.08
2022-12-19T22:06:17.316Z,28.92
2022-12-19T22:08:48.179Z,28.10
2022-12-19T22:11:22.245Z,28.73
2022-12-19T22:13:50.579Z,28.88
2022-12-19T22:16:18.502Z,29.13
2022-12-19T22:18:46.201Z,30.70
2022-12-19T22:21:15.418Z,32.08
2022-12-19T22:23:42.842Z,31.02
2022-12-19T22:26:16.794Z,32.00
2022-12-19T22:28:47.003Z,32.22
2022-12-19T22:31:26.491Z,32.08
2022-12-19T22:33:57.551Z,34.20
2022-12-19T22:36:28.857Z,34.05
2022-12-19T22:38:57.434Z,31.83
2022-12-19T22:41:25.590Z,31.98
2022-12-19T22:43:54.092Z,31.95
2022-12-19T22:46:26.694Z,31.05
2022-12-19T22:48:56.770Z,30.63
2022-12-19T22:51:24.639Z,30.13
2022-12-19T22:53:51.798Z,30.50
2022-12-19T22:56:21.719Z,30.00
2022-12-19T22:58:51.390Z,29.92
2022-12-19T23:01:25.216Z,27.95
2022-12-19T23:03:54.136Z,28.52
2022-12-19T23:06:22.550Z,29.33
2022-12-19T23:08:50.185Z,27.95
2022-12-19T23:11:25.979Z,27.05
2022-12-19T23:13:53.159Z,26.83
2022-12-19T23:16:21.158Z,28.27
2022-12-19T23:18:48.282Z,28.50
2022-12-19T23:21:18.339Z,29.42
2022-12-19T23:23:47.673Z,29.75
2022-12-19T23:26:24.087Z,29.45
2022-12-19T23:29:00.631Z,28.92
2022-12-19T23:31:29.217Z,28.88
2022-12-19T23:33:57.455Z,29.08
2022-12-19T23:37:00.507Z,28.63
2022-12-19T23:39:13.065Z,26.55
2022-12-19T23:41:40.579Z,28.00
2022-12-19T23:44:09.101Z,28.45
2022-12-19T23:46:37.218Z,28.90
2022-12-19T23:49:04.593Z,29.33
2022-12-19T23:51:32.362Z,29.23
2022-12-19T23:53:59.506Z,30.15
2022-12-19T23:56:29.255Z,28.17
2022-12-19T23:58:58.081Z,27.98
